createdAt,value
2022-11-05T00:00:58.410Z,999.6763916
2022-11-05T00:01:54.803Z,999.6640015
2022-11-05T00:03:53.506Z,999.647644
2022-11-05T00:04:53.514Z,999.6516113
2022-11-05T00:05:49.858Z,999.7143555
2022-11-05T00:06:51.430Z,999.6898193
2022-11-05T00:07:48.019Z,999.7385864
2022-11-05T00:08:47.040Z,999.793457
2022-11-05T00:09:46.205Z,999.7546997
2022-11-05T00:10:47.959Z,999.7665405
2022-11-05T00:11:44.471Z,999.723877
2022-11-05T00:12:53.562Z,999.8275146
2022-11-05T00:13:54.225Z,999.8414917
2022-11-05T00:14:50.224Z,999.7461548
2022-11-05T00:15:55.541Z,999.8595581
2022-11-05T00:16:56.598Z,999.8189697
2022-11-05T00:17:52.095Z,999.8251343
2022-11-05T00:18:52.381Z,999.8370361
2022-11-05T00:19:46.987Z,999.8571777
2022-11-05T00:20:52.356Z,999.8772583
2022-11-05T00:21:48.406Z,999.9220581
2022-11-05T00:23:34.517Z,999.9104614
2022-11-05T00:24:18.200Z,999.880127
2022-11-05T00:24:24.217Z,999.880127
2022-11-05T00:25:16.148Z,999.8399048
2022-11-05T00:26:12.526Z,999.9514771
2022-11-05T00:27:11.767Z,999.8825073
2022-11-05T00:29:05.279Z,999.8292847
2022-11-05T00:30:05.102Z,999.930542
2022-11-05T00:30:59.991Z,999.8917847
2022-11-05T00:32:00.088Z,999.9320068
2022-11-05T00:33:56.925Z,999.8444824
2022-11-05T00:34:58.124Z,999.8157959
2022-11-05T00:35:54.553Z,999.9047852
2022-11-05T00:37:02.111Z,999.8822632
2022-11-05T00:37:58.956Z,999.8864136
2022-11-05T00:38:52.142Z,999.9128418
2022-11-05T00:39:54.607Z,999.9128418
2022-11-05T00:40:49.240Z,999.8721924
2022-11-05T00:41:56.125Z,999.9085693
2022-11-05T00:43:57.192Z,999.9467163
2022-11-05T00:44:52.566Z,999.9713135
2022-11-05T00:45:56.290Z,999.9651489
2022-11-05T00:46:59.642Z,1000.029541
2022-11-05T00:47:00.050Z,1000.029541
2022-11-05T00:48:50.453Z,1000.08429
2022-11-05T00:49:56.972Z,1000.085999
2022-11-05T00:50:54.486Z,1000.073608
2022-11-05T00:52:01.386Z,1000.059387
2022-11-05T00:53:56.595Z,1000.024658
2022-11-05T00:54:54.121Z,999.9942017
2022-11-05T00:55:52.413Z,1000.054871
2022-11-05T00:57:01.958Z,1000.113281
2022-11-05T00:57:04.742Z,1000.113281
2022-11-05T00:58:54.954Z,1000.07312
2022-11-05T00:59:57.023Z,1000.091187
2022-11-05T01:00:48.941Z,1000.032288
2022-11-05T01:01:54.910Z,1000.058594
2022-11-05T01:02:47.078Z,1000.16217
2022-11-05T01:03:51.751Z,1000.19397
2022-11-05T01:05:56.196Z,1000.158386
2022-11-05T01:06:36.468Z,1000.170837
2022-11-05T01:08:34.798Z,1000.229736
2022-11-05T01:09:29.198Z,1000.210999
2022-11-05T01:10:28.572Z,1000.196472
2022-11-05T01:11:24.204Z,1000.28125
2022-11-05T01:12:23.319Z,1000.317566
2022-11-05T01:14:24.216Z,1000.282471
2022-11-05T01:15:19.438Z,1000.288025
2022-11-05T01:16:17.667Z,1000.301819
2022-11-05T01:17:14.634Z,1000.348145
2022-11-05T01:19:10.267Z,1000.294983
2022-11-05T01:20:11.397Z,1000.315002
2022-11-05T01:21:06.785Z,1000.325073
2022-11-05T01:22:06.017Z,1000.326782
2022-11-05T01:24:02.025Z,1000.424072
2022-11-05T01:24:58.665Z,1000.452026
2022-11-05T01:26:01.880Z,1000.425781
2022-11-05T01:27:01.413Z,1000.415771
2022-11-05T01:29:00.683Z,1000.44458
2022-11-05T01:29:59.588Z,1000.367676
2022-11-05T01:30:59.904Z,1000.387634
2022-11-05T01:31:59.091Z,1000.424072
2022-11-05T01:32:55.412Z,1000.359375
2022-11-05T01:33:58.232Z,1000.351379
2022-11-05T01:34:54.238Z,1000.341431
2022-11-05T01:35:55.971Z,1000.375732
2022-11-05T01:36:48.372Z,1000.361389
2022-11-05T01:37:46.639Z,1000.393982
2022-11-05T01:38:43.114Z,1000.379395
2022-11-05T01:39:39.734Z,1000.452026
2022-11-05T01:40:38.456Z,1000.472046
2022-11-05T01:41:32.539Z,1000.518433
2022-11-05T01:42:33.998Z,1000.542969
2022-11-05T01:43:58.012Z,1000.498352
2022-11-05T01:44:41.611Z,1000.530945
2022-11-05T01:45:45.447Z,1000.520935
2022-11-05T01:46:44.692Z,1000.486694
2022-11-05T01:47:48.983Z,1000.482971
2022-11-05T01:48:47.235Z,1000.496704
2022-11-05T01:49:54.956Z,1000.465759
2022-11-05T01:50:50.774Z,1000.520386
2022-11-05T01:51:50.436Z,1000.515808
2022-11-05T01:53:46.959Z,1000.544128
2022-11-05T01:54:49.280Z,1000.584167
2022-11-05T01:55:47.283Z,1000.505249
2022-11-05T01:56:45.812Z,1000.543213
2022-11-05T01:57:41.154Z,1000.416321
2022-11-05T01:58:46.805Z,1000.513184
2022-11-05T01:59:39.346Z,1000.505249
2022-11-05T02:00:39.223Z,1000.618408
2022-11-05T02:01:37.562Z,1000.460632
2022-11-05T02:03:34.796Z,1000.525757
2022-11-05T02:04:30.865Z,1000.622986
2022-11-05T02:05:31.163Z,1000.632996
2022-11-05T02:06:16.342Z,1000.713623
2022-11-05T02:07:18.718Z,1000.664673
2022-11-05T02:09:13.023Z,1000.605774
2022-11-05T02:10:11.443Z,1000.644043
2022-11-05T02:11:09.821Z,1000.678467
2022-11-05T02:12:10.404Z,1000.629517
2022-11-05T02:13:55.314Z,1000.650391
2022-11-05T02:14:44.621Z,1000.681091
2022-11-05T02:15:40.690Z,1000.740845
2022-11-05T02:16:31.009Z,1000.765137
2022-11-05T02:17:32.195Z,1000.735168
2022-11-05T02:19:30.223Z,1000.680786
2022-11-05T02:20:28.417Z,1000.649902
2022-11-05T02:21:32.465Z,1000.778809
2022-11-05T02:22:31.944Z,1000.821411
2022-11-05T02:23:35.915Z,1000.773438
2022-11-05T02:24:51.002Z,1000.783447
2022-11-05T02:25:52.841Z,1000.823425
2022-11-05T02:26:47.927Z,1000.833435
2022-11-05T02:28:41.277Z,1000.830811
2022-11-05T02:29:42.195Z,1000.980286
2022-11-05T02:30:37.984Z,1000.924072
2022-11-05T02:31:38.304Z,1000.858826
2022-11-05T02:32:33.420Z,1000.773621
2022-11-05T02:33:35.293Z,1000.856201
2022-11-05T02:34:30.077Z,1000.906067
2022-11-05T02:35:34.638Z,1000.954346
2022-11-05T02:36:33.958Z,1000.941711
2022-11-05T02:38:35.158Z,1000.949707
2022-11-05T02:39:35.460Z,1000.823914
2022-11-05T02:41:22.913Z,1000.899048
2022-11-05T02:42:05.292Z,1000.895447
2022-11-05T02:43:03.089Z,1000.916077
2022-11-05T02:44:04.418Z,1000.909851
2022-11-05T02:45:01.569Z,1000.967957
2022-11-05T02:46:02.400Z,1000.941711
2022-11-05T02:46:59.005Z,1000.969666
2022-11-05T02:48:58.533Z,1000.849243
2022-11-05T02:50:03.561Z,1000.917114
2022-11-05T02:50:58.477Z,1000.892822
2022-11-05T02:52:05.241Z,1000.886414
2022-11-05T02:53:10.153Z,1000.872803
2022-11-05T02:54:06.752Z,1000.891785
2022-11-05T02:55:12.801Z,1000.863525
2022-11-05T02:56:12.514Z,1000.918152
2022-11-05T02:57:17.919Z,1000.887207
2022-11-05T02:59:18.691Z,1000.848267
2022-11-05T03:00:19.259Z,1000.940674
2022-11-05T03:01:24.738Z,1000.92804
2022-11-05T03:02:28.303Z,1000.929993
2022-11-05T03:04:27.451Z,1000.832825
2022-11-05T03:05:28.448Z,1000.911743
2022-11-05T03:06:27.386Z,1000.824829
2022-11-05T03:07:28.556Z,1000.780334
2022-11-05T03:09:32.579Z,1000.872803
2022-11-05T03:11:54.853Z,1000.787659
2022-11-05T03:12:36.373Z,1000.794617
2022-11-05T03:13:36.622Z,1000.790955
2022-11-05T03:14:36.653Z,1000.802979
2022-11-05T03:15:33.233Z,1000.770325
2022-11-05T03:16:35.417Z,1000.782043
2022-11-05T03:18:34.034Z,1000.715088
2022-11-05T03:19:29.686Z,1000.78125
2022-11-05T03:20:30.585Z,1000.827515
2022-11-05T03:21:25.293Z,1000.822876
2022-11-05T03:22:24.764Z,1000.828491
2022-11-05T03:23:24.851Z,1000.798584
2022-11-05T03:24:23.871Z,1000.855469
2022-11-05T03:25:32.892Z,1000.839233
2022-11-05T03:26:34.125Z,1000.841187
2022-11-05T03:27:29.532Z,1000.814819
2022-11-05T03:28:31.672Z,1000.818542
2022-11-05T03:29:26.364Z,1000.810181
2022-11-05T03:30:29.752Z,1000.836487
2022-11-05T03:31:26.070Z,1000.810181
2022-11-05T03:32:27.717Z,1000.822205
2022-11-05T03:34:18.302Z,1000.795959
2022-11-05T03:35:18.732Z,1000.746948
2022-11-05T03:36:14.029Z,1000.850159
2022-11-05T03:37:15.550Z,1000.860107
2022-11-05T03:38:10.046Z,1000.868408
2022-11-05T03:39:12.446Z,1000.835754
2022-11-05T03:40:11.594Z,1000.960754
2022-11-05T03:41:13.251Z,1000.900024
2022-11-05T03:42:09.396Z,1000.934509
2022-11-05T03:44:06.710Z,1000.919922
2022-11-05T03:45:09.671Z,1000.929871
2022-11-05T03:46:09.060Z,1000.933533
2022-11-05T03:47:04.967Z,1001.048584
2022-11-05T03:49:02.145Z,1000.96814
2022-11-05T03:50:02.113Z,1001.02063
2022-11-05T03:50:57.543Z,1001.044983
2022-11-05T03:51:56.872Z,1000.984375
2022-11-05T03:52:54.288Z,1001.002319
2022-11-05T03:53:56.679Z,1000.987976
2022-11-05T03:56:18.689Z,1001.029541
2022-11-05T03:56:59.923Z,1001.056885
2022-11-05T03:59:07.290Z,1001.124756
2022-11-05T04:00:03.655Z,1001.221863
2022-11-05T04:01:06.713Z,1001.220764
2022-11-05T04:02:02.161Z,1001.160339
2022-11-05T04:03:02.327Z,1001.151978
2022-11-05T04:03:59.545Z,1001.16748
2022-11-05T04:04:54.064Z,1001.12854
2022-11-05T04:05:50.286Z,1001.199036
2022-11-05T04:06:52.854Z,1001.210938
2022-11-05T04:08:48.357Z,1001.311401
2022-11-05T04:09:47.462Z,1001.287048
2022-11-05T04:10:42.025Z,1001.211792
2022-11-05T04:11:40.803Z,1001.177185
2022-11-05T04:13:37.640Z,1001.290649
2022-11-05T04:14:36.113Z,1001.26593
2022-11-05T04:15:33.361Z,1001.239685
2022-11-05T04:16:32.752Z,1001.28595
2022-11-05T04:17:27.019Z,1001.287842
2022-11-05T04:18:26.700Z,1001.261536
2022-11-05T04:19:26.030Z,1001.305786
2022-11-05T04:19:26.309Z,1001.305786
2022-11-05T04:20:24.821Z,1001.279541
2022-11-05T04:21:19.166Z,1001.241699
2022-11-05T04:22:20.483Z,1001.274353
2022-11-05T04:24:15.408Z,1001.304138
2022-11-05T04:25:13.353Z,1001.295837
2022-11-05T04:26:12.046Z,1001.277893
2022-11-05T04:27:12.921Z,1001.236938
2022-11-05T04:28:08.056Z,1001.256897
2022-11-05T04:29:11.438Z,1001.271545
2022-11-05T04:30:09.251Z,1001.271545
2022-11-05T04:31:00.954Z,1001.272339
2022-11-05T04:32:02.269Z,1001.398621
2022-11-05T04:32:56.631Z,1001.396545
2022-11-05T04:33:59.836Z,1001.331238
2022-11-05T04:34:54.306Z,1001.316895
2022-11-05T04:35:56.137Z,1001.290649
2022-11-05T04:36:57.972Z,1001.292236
2022-11-05T04:38:54.825Z,1001.304138
2022-11-05T04:39:49.768Z,1001.330444
2022-11-05T04:40:52.608Z,1001.34845
2022-11-05T04:41:47.062Z,1001.315796
2022-11-05T04:43:43.185Z,1001.319092
2022-11-05T04:44:46.169Z,1001.380127
2022-11-05T04:45:57.490Z,1001.280029
2022-11-05T04:46:50.858Z,1001.411377
2022-11-05T04:47:51.463Z,1001.381592
2022-11-05T04:49:34.378Z,1001.374695
2022-11-05T04:50:25.136Z,1001.405701
2022-11-05T04:51:21.762Z,1001.393738
2022-11-05T04:52:22.260Z,1001.395752
2022-11-05T04:53:22.621Z,1001.445496
2022-11-05T04:54:17.465Z,1001.459045
2022-11-05T04:55:16.467Z,1001.403381
2022-11-05T04:56:14.507Z,1001.431274
2022-11-05T04:57:15.961Z,1001.382263
2022-11-05T04:58:14.112Z,1001.384216
2022-11-05T04:59:18.015Z,1001.436707
2022-11-05T05:00:12.386Z,1001.363098
2022-11-05T05:01:10.365Z,1001.392944
2022-11-05T05:02:16.353Z,1001.324036
2022-11-05T05:03:18.835Z,1001.409241
2022-11-05T05:04:13.220Z,1001.42749
2022-11-05T05:05:13.206Z,1001.352295
2022-11-05T05:06:08.929Z,1001.375
2022-11-05T05:07:09.907Z,1001.402832
2022-11-05T05:09:05.491Z,1001.407654
2022-11-05T05:10:05.807Z,1001.478149
2022-11-05T05:11:01.406Z,1001.419189
2022-11-05T05:12:04.556Z,1001.460144
2022-11-05T05:14:03.443Z,1001.484558
2022-11-05T05:14:59.085Z,1001.502747
2022-11-05T05:15:59.385Z,1001.494446
2022-11-05T05:16:55.719Z,1001.484558
2022-11-05T05:18:53.388Z,1001.487366
2022-11-05T05:19:57.082Z,1001.444702
2022-11-05T05:20:49.705Z,1001.46936
2022-11-05T05:21:53.221Z,1001.515564
2022-11-05T05:24:30.749Z,1001.447571
2022-11-05T05:25:12.173Z,1001.516418
2022-11-05T05:26:10.456Z,1001.478577
2022-11-05T05:27:15.144Z,1001.473816
2022-11-05T05:28:28.257Z,1001.507202
2022-11-05T05:29:23.263Z,1001.460144
2022-11-05T05:30:24.501Z,1001.497986
2022-11-05T05:31:20.190Z,1001.53772
2022-11-05T05:32:22.433Z,1001.462524
2022-11-05T05:33:28.351Z,1001.508606
2022-11-05T05:34:24.926Z,1001.515625
2022-11-05T05:35:25.654Z,1001.509216
2022-11-05T05:36:21.680Z,1001.509216
2022-11-05T05:37:21.843Z,1001.539001
2022-11-05T05:38:18.637Z,1001.550842
2022-11-05T05:39:18.541Z,1001.596863
2022-11-05T05:40:16.911Z,1001.529663
2022-11-05T05:41:22.648Z,1001.580627
2022-11-05T05:42:18.961Z,1001.641113
2022-11-05T05:43:21.087Z,1001.60498
2022-11-05T05:44:17.826Z,1001.616699
2022-11-05T05:45:13.237Z,1001.641113
2022-11-05T05:46:17.933Z,1001.613281
2022-11-05T05:47:15.066Z,1001.544434
